sensor_id;sensor_type;location;lat;lon;timestamp;temperature;humidity
17442;DHT22;8838;50.144;8.176;2022-11-15T00:02:05;8.80;99.90
17442;DHT22;8838;50.144;8.176;2022-11-15T00:04:33;8.80;99.90
17442;DHT22;8838;50.144;8.176;2022-11-15T00:07:00;8.70;99.90
17442;DHT22;8838;50.144;8.176;2022-11-15T00:09:27;8.70;99.90
17442;DHT22;8838;50.144;8.176;2022-11-15T00:11:54;8.60;99.90
17442;DHT22;8838;50.144;8.176;2022-11-15T00:14:20;8.60;99.90
17442;DHT22;8838;50.144;8.176;2022-11-15T00:16:47;8.60;99.90
17442;DHT22;8838;50.144;8.176;2022-11-15T00:19:14;8.70;99.90
17442;DHT22;8838;50.144;8.176;2022-11-15T00:21:43;8.80;99.90
17442;DHT22;8838;50.144;8.176;2022-11-15T00:24:09;8.80;99.90
17442;DHT22;8838;50.144;8.176;2022-11-15T00:26:36;8.80;99.90
17442;DHT22;8838;50.144;8.176;2022-11-15T00:29:03;8.80;99.90
17442;DHT22;8838;50.144;8.176;2022-11-15T00:31:30;8.80;99.90
17442;DHT22;8838;50.144;8.176;2022-11-15T00:33:57;8.80;99.90
17442;DHT22;8838;50.144;8.176;2022-11-15T00:36:24;8.70;99.90
17442;DHT22;8838;50.144;8.176;2022-11-15T00:38:52;8.60;99.90
17442;DHT22;8838;50.144;8.176;2022-11-15T00:41:19;8.60;99.90
17442;DHT22;8838;50.144;8.176;2022-11-15T00:43:46;8.50;99.90
17442;DHT22;8838;50.144;8.176;2022-11-15T00:46:12;8.50;99.90
17442;DHT22;8838;50.144;8.176;2022-11-15T00:48:39;8.50;99.90
17442;DHT22;8838;50.144;8.176;2022-11-15T00:51:06;8.50;99.90
17442;DHT22;8838;50.144;8.176;2022-11-15T00:53:33;8.50;99.90
17442;DHT22;8838;50.144;8.176;2022-11-15T00:56:02;8.50;99.90
17442;DHT22;8838;50.144;8.176;2022-11-15T00:58:29;8.50;99.90
17442;DHT22;8838;50.144;8.176;2022-11-15T01:01:05;8.50;99.90
17442;DHT22;8838;50.144;8.176;2022-11-15T01:03:34;8.50;99.90
17442;DHT22;8838;50.144;8.176;2022-11-15T01:06:01;8.50;99.90
17442;DHT22;8838;50.144;8.176;2022-11-15T01:08:28;8.50;99.90
17442;DHT22;8838;50.144;8.176;2022-11-15T01:10:54;8.50;99.90
17442;DHT22;8838;50.144;8.176;2022-11-15T01:13:29;8.50;99.90
17442;DHT22;8838;50.144;8.176;2022-11-15T01:15:56;8.50;99.90
17442;DHT22;8838;50.144;8.176;2022-11-15T01:18:23;8.50;99.90
17442;DHT22;8838;50.144;8.176;2022-11-15T01:20:50;8.50;99.90
17442;DHT22;8838;50.144;8.176;2022-11-15T01:23:17;8.60;99.90
17442;DHT22;8838;50.144;8.176;2022-11-15T01:25:44;8.60;99.90
17442;DHT22;8838;50.144;8.176;2022-11-15T01:28:10;8.70;99.90
17442;DHT22;8838;50.144;8.176;2022-11-15T01:30:39;8.70;99.90
17442;DHT22;8838;50.144;8.176;2022-11-15T01:33:05;8.70;99.90
17442;DHT22;8838;50.144;8.176;2022-11-15T01:35:32;8.80;99.90
17442;DHT22;8838;50.144;8.176;2022-11-15T01:37:59;8.80;99.90
17442;DHT22;8838;50.144;8.176;2022-11-15T01:40:26;8.90;99.90
17442;DHT22;8838;50.144;8.176;2022-11-15T01:42:53;8.90;99.90
17442;DHT22;8838;50.144;8.176;2022-11-15T01:45:20;8.90;99.90
17442;DHT22;8838;50.144;8.176;2022-11-15T01:47:51;9.00;99.90
17442;DHT22;8838;50.144;8.176;2022-11-15T01:50:22;9.00;99.90
17442;DHT22;8838;50.144;8.176;2022-11-15T01:52:50;9.00;99.90
17442;DHT22;8838;50.144;8.176;2022-11-15T01:55:20;9.10;99.90
17442;DHT22;8838;50.144;8.176;2022-11-15T01:57:50;9.00;99.90
17442;DHT22;8838;50.144;8.176;2022-11-15T02:00:18;9.00;99.90
17442;DHT22;8838;50.144;8.176;2022-11-15T02:02:45;9.10;99.90
17442;DHT22;8838;50.144;8.176;2022-11-15T02:05:14;9.00;99.90
17442;DHT22;8838;50.144;8.176;2022-11-15T02:07:41;9.10;99.90
17442;DHT22;8838;50.144;8.176;2022-11-15T02:10:10;9.10;99.90
17442;DHT22;8838;50.144;8.176;2022-11-15T02:12:37;9.10;99.90
17442;DHT22;8838;50.144;8.176;2022-11-15T02:15:06;9.10;99.90
17442;DHT22;8838;50.144;8.176;2022-11-15T02:17:54;9.10;99.90
17442;DHT22;8838;50.144;8.176;2022-11-15T02:20:54;9.20;99.90
17442;DHT22;8838;50.144;8.176;2022-11-15T02:23:48;9.10;99.90
17442;DHT22;8838;50.144;8.176;2022-11-15T02:26:52;9.20;99.90
17442;DHT22;8838;50.144;8.176;2022-11-15T02:29:32;9.20;99.90
17442;DHT22;8838;50.144;8.176;2022-11-15T02:32:07;9.10;99.90
17442;DHT22;8838;50.144;8.176;2022-11-15T02:34:46;9.00;99.90
17442;DHT22;8838;50.144;8.176;2022-11-15T02:37:18;9.00;99.90
17442;DHT22;8838;50.144;8.176;2022-11-15T02:39:51;9.00;99.90
17442;DHT22;8838;50.144;8.176;2022-11-15T02:42:24;9.00;99.90
17442;DHT22;8838;50.144;8.176;2022-11-15T02:45:13;9.10;99.90
17442;DHT22;8838;50.144;8.176;2022-11-15T02:47:44;9.10;99.90
17442;DHT22;8838;50.144;8.176;2022-11-15T02:50:14;9.20;99.90
17442;DHT22;8838;50.144;8.176;2022-11-15T02:52:45;9.20;99.90
17442;DHT22;8838;50.144;8.176;2022-11-15T02:55:31;9.20;99.90
17442;DHT22;8838;50.144;8.176;2022-11-15T02:58:14;9.20;99.90
17442;DHT22;8838;50.144;8.176;2022-11-15T03:00:48;9.20;99.90
17442;DHT22;8838;50.144;8.176;2022-11-15T03:03:36;9.30;99.90
17442;DHT22;8838;50.144;8.176;2022-11-15T03:06:19;9.30;99.90
17442;DHT22;8838;50.144;8.176;2022-11-15T03:08:54;9.40;99.90
17442;DHT22;8838;50.144;8.176;2022-11-15T03:11:23;9.40;99.90
17442;DHT22;8838;50.144;8.176;2022-11-15T03:13:56;9.40;99.90
17442;DHT22;8838;50.144;8.176;2022-11-15T03:16:27;9.40;99.90
17442;DHT22;8838;50.144;8.176;2022-11-15T03:18:59;9.40;99.90
17442;DHT22;8838;50.144;8.176;2022-11-15T03:21:29;9.30;99.90
17442;DHT22;8838;50.144;8.176;2022-11-15T03:23:58;9.40;99.90
17442;DHT22;8838;50.144;8.176;2022-11-15T03:26:28;9.30;99.90
17442;DHT22;8838;50.144;8.176;2022-11-15T03:28:58;9.40;99.90
17442;DHT22;8838;50.144;8.176;2022-11-15T03:31:28;9.40;99.90
17442;DHT22;8838;50.144;8.176;2022-11-15T03:34:22;9.40;99.90
17442;DHT22;8838;50.144;8.176;2022-11-15T03:36:51;9.30;99.90
17442;DHT22;8838;50.144;8.176;2022-11-15T03:39:19;9.30;99.90
17442;DHT22;8838;50.144;8.176;2022-11-15T03:41:52;9.20;99.90
17442;DHT22;8838;50.144;8.176;2022-11-15T03:44:34;9.20;99.90
17442;DHT22;8838;50.144;8.176;2022-11-15T03:47:06;9.20;99.90
17442;DHT22;8838;50.144;8.176;2022-11-15T03:49:40;9.20;99.90
17442;DHT22;8838;50.144;8.176;2022-11-15T03:52:07;9.20;99.90
17442;DHT22;8838;50.144;8.176;2022-11-15T03:54:36;9.20;99.90
17442;DHT22;8838;50.144;8.176;2022-11-15T03:57:03;9.20;99.90
17442;DHT22;8838;50.144;8.176;2022-11-15T03:59:33;9.20;99.90
17442;DHT22;8838;50.144;8.176;2022-11-15T04:02:00;9.20;99.90
17442;DHT22;8838;50.144;8.176;2022-11-15T04:04:27;9.10;99.90
17442;DHT22;8838;50.144;8.176;2022-11-15T04:06:55;9.10;99.90
17442;DHT22;8838;50.144;8.176;2022-11-15T04:09:22;9.10;99.90
17442;DHT22;8838;50.144;8.176;2022-11-15T04:11:48;9.10;99.90
17442;DHT22;8838;50.144;8.176;2022-11-15T04:14:15;9.10;99.90
17442;DHT22;8838;50.144;8.176;2022-11-15T04:16:42;9.00;99.90
17442;DHT22;8838;50.144;8.176;2022-11-15T04:19:09;8.90;99.90
17442;DHT22;8838;50.144;8.176;2022-11-15T04:22:02;8.90;99.90
17442;DHT22;8838;50.144;8.176;2022-11-15T04:24:47;8.90;99.90
17442;DHT22;8838;50.144;8.176;2022-11-15T04:27:14;8.80;99.90
17442;DHT22;8838;50.144;8.176;2022-11-15T04:29:40;8.80;99.90
17442;DHT22;8838;50.144;8.176;2022-11-15T04:32:07;8.80;99.90
17442;DHT22;8838;50.144;8.176;2022-11-15T04:34:34;8.70;99.90
17442;DHT22;8838;50.144;8.176;2022-11-15T04:37:03;8.70;99.90
17442;DHT22;8838;50.144;8.176;2022-11-15T04:39:39;8.70;99.90
17442;DHT22;8838;50.144;8.176;2022-11-15T04:42:06;8.70;99.90
17442;DHT22;8838;50.144;8.176;2022-11-15T04:44:33;8.70;99.90
17442;DHT22;8838;50.144;8.176;2022-11-15T04:47:00;8.80;99.90
17442;DHT22;8838;50.144;8.176;2022-11-15T04:49:26;8.80;99.90
17442;DHT22;8838;50.144;8.176;2022-11-15T04:51:54;8.80;99.90
17442;DHT22;8838;50.144;8.176;2022-11-15T04:54:22;8.80;99.90
17442;DHT22;8838;50.144;8.176;2022-11-15T04:56:48;8.80;99.90
17442;DHT22;8838;50.144;8.176;2022-11-15T04:59:16;8.80;99.90
17442;DHT22;8838;50.144;8.176;2022-11-15T05:01:42;8.70;99.90
17442;DHT22;8838;50.144;8.176;2022-11-15T05:04:09;8.70;99.90
17442;DHT22;8838;50.144;8.176;2022-11-15T05:06:51;8.70;99.90
17442;DHT22;8838;50.144;8.176;2022-11-15T05:09:19;8.60;99.90
17442;DHT22;8838;50.144;8.176;2022-11-15T05:11:47;8.60;99.90
17442;DHT22;8838;50.144;8.176;2022-11-15T05:14:14;8.60;99.90
17442;DHT22;8838;50.144;8.176;2022-11-15T05:16:42;8.50;99.90
17442;DHT22;8838;50.144;8.176;2022-11-15T05:19:09;8.50;99.90
17442;DHT22;8838;50.144;8.176;2022-11-15T05:21:36;8.50;99.90
17442;DHT22;8838;50.144;8.176;2022-11-15T05:24:03;8.50;99.90
17442;DHT22;8838;50.144;8.176;2022-11-15T05:26:31;8.50;99.90
17442;DHT22;8838;50.144;8.176;2022-11-15T05:28:59;8.50;99.90
17442;DHT22;8838;50.144;8.176;2022-11-15T05:31:26;8.40;99.90
17442;DHT22;8838;50.144;8.176;2022-11-15T05:33:55;8.50;99.90
17442;DHT22;8838;50.144;8.176;2022-11-15T05:36:29;8.50;99.90
17442;DHT22;8838;50.144;8.176;2022-11-15T05:38:57;8.50;99.90
17442;DHT22;8838;50.144;8.176;2022-11-15T05:41:29;8.60;99.90
17442;DHT22;8838;50.144;8.176;2022-11-15T05:43:59;8.50;99.90
17442;DHT22;8838;50.144;8.176;2022-11-15T05:46:27;8.60;99.90
17442;DHT22;8838;50.144;8.176;2022-11-15T05:48:55;8.60;99.90
17442;DHT22;8838;50.144;8.176;2022-11-15T05:51:22;8.70;99.90
17442;DHT22;8838;50.144;8.176;2022-11-15T05:53:51;8.60;99.90
17442;DHT22;8838;50.144;8.176;2022-11-15T05:56:19;8.60;99.90
17442;DHT22;8838;50.144;8.176;2022-11-15T05:58:46;8.70;99.90
17442;DHT22;8838;50.144;8.176;2022-11-15T06:01:14;8.70;99.90
17442;DHT22;8838;50.144;8.176;2022-11-15T06:03:41;8.70;99.90
17442;DHT22;8838;50.144;8.176;2022-11-15T06:06:08;8.80;99.90
17442;DHT22;8838;50.144;8.176;2022-11-15T06:08:35;8.80;99.90
17442;DHT22;8838;50.144;8.176;2022-11-15T06:11:05;8.90;99.90
17442;DHT22;8838;50.144;8.176;2022-11-15T06:13:34;8.90;99.90
17442;DHT22;8838;50.144;8.176;2022-11-15T06:16:01;8.90;99.90
17442;DHT22;8838;50.144;8.176;2022-11-15T06:18:32;8.90;99.90
17442;DHT22;8838;50.144;8.176;2022-11-15T06:21:00;9.00;99.90
17442;DHT22;8838;50.144;8.176;2022-11-15T06:23:27;9.00;99.90
17442;DHT22;8838;50.144;8.176;2022-11-15T06:25:57;9.00;99.90
17442;DHT22;8838;50.144;8.176;2022-11-15T06:28:24;8.90;99.90
17442;DHT22;8838;50.144;8.176;2022-11-15T06:30:51;8.90;99.90
17442;DHT22;8838;50.144;8.176;2022-11-15T06:33:18;8.90;99.90
17442;DHT22;8838;50.144;8.176;2022-11-15T06:35:47;8.90;99.90
17442;DHT22;8838;50.144;8.176;2022-11-15T06:38:13;8.90;99.90
17442;DHT22;8838;50.144;8.176;2022-11-15T06:40:40;8.90;99.90
17442;DHT22;8838;50.144;8.176;2022-11-15T06:43:07;8.90;99.90
17442;DHT22;8838;50.144;8.176;2022-11-15T06:45:34;8.90;99.90
17442;DHT22;8838;50.144;8.176;2022-11-15T06:48:01;8.90;99.90
17442;DHT22;8838;50.144;8.176;2022-11-15T06:50:28;9.00;99.90
17442;DHT22;8838;50.144;8.176;2022-11-15T06:53:00;9.00;99.90
17442;DHT22;8838;50.144;8.176;2022-11-15T06:55:27;9.10;99.90
17442;DHT22;8838;50.144;8.176;2022-11-15T06:57:54;9.10;99.90
17442;DHT22;8838;50.144;8.176;2022-11-15T07:00:21;9.10;99.90
17442;DHT22;8838;50.144;8.176;2022-11-15T07:02:48;9.10;99.90
17442;DHT22;8838;50.144;8.176;2022-11-15T07:05:15;9.10;99.90
17442;DHT22;8838;50.144;8.176;2022-11-15T07:07:42;9.10;99.90
17442;DHT22;8838;50.144;8.176;2022-11-15T07:10:11;9.10;99.90
17442;DHT22;8838;50.144;8.176;2022-11-15T07:12:38;9.10;99.90
17442;DHT22;8838;50.144;8.176;2022-11-15T07:15:06;9.10;99.90
17442;DHT22;8838;50.144;8.176;2022-11-15T07:17:33;9.00;99.90
17442;DHT22;8838;50.144;8.176;2022-11-15T07:19:59;9.10;99.90
17442;DHT22;8838;50.144;8.176;2022-11-15T07:22:26;9.10;99.90
17442;DHT22;8838;50.144;8.176;2022-11-15T07:24:53;9.10;99.90
17442;DHT22;8838;50.144;8.176;2022-11-15T07:27:21;9.10;99.90
17442;DHT22;8838;50.144;8.176;2022-11-15T07:29:48;9.20;99.90
17442;DHT22;8838;50.144;8.176;2022-11-15T07:32:15;9.30;99.90
17442;DHT22;8838;50.144;8.176;2022-11-15T07:34:42;9.30;99.90
17442;DHT22;8838;50.144;8.176;2022-11-15T07:37:11;9.40;99.90
17442;DHT22;8838;50.144;8.176;2022-11-15T07:39:38;9.40;99.90
17442;DHT22;8838;50.144;8.176;2022-11-15T07:42:05;9.40;99.90
17442;DHT22;8838;50.144;8.176;2022-11-15T07:44:50;9.40;99.90
17442;DHT22;8838;50.144;8.176;2022-11-15T07:47:17;9.50;99.90
17442;DHT22;8838;50.144;8.176;2022-11-15T07:49:44;9.50;99.90
17442;DHT22;8838;50.144;8.176;2022-11-15T07:52:11;9.60;99.90
17442;DHT22;8838;50.144;8.176;2022-11-15T07:54:38;9.70;99.90
17442;DHT22;8838;50.144;8.176;2022-11-15T07:57:05;9.70;99.90
17442;DHT22;8838;50.144;8.176;2022-11-15T07:59:34;9.80;99.90
17442;DHT22;8838;50.144;8.176;2022-11-15T08:02:03;9.80;99.90
17442;DHT22;8838;50.144;8.176;2022-11-15T08:04:30;9.70;99.90
17442;DHT22;8838;50.144;8.176;2022-11-15T08:06:56;9.70;99.90
17442;DHT22;8838;50.144;8.176;2022-11-15T08:09:24;9.70;99.90
17442;DHT22;8838;50.144;8.176;2022-11-15T08:11:51;9.80;99.90
17442;DHT22;8838;50.144;8.176;2022-11-15T08:14:17;9.80;99.90
17442;DHT22;8838;50.144;8.176;2022-11-15T08:16:44;9.90;99.90
17442;DHT22;8838;50.144;8.176;2022-11-15T08:19:12;9.90;99.90
17442;DHT22;8838;50.144;8.176;2022-11-15T08:21:39;9.90;99.90
17442;DHT22;8838;50.144;8.176;2022-11-15T08:24:09;9.90;99.90
17442;DHT22;8838;50.144;8.176;2022-11-15T08:26:36;9.90;99.90
17442;DHT22;8838;50.144;8.176;2022-11-15T08:29:03;9.90;99.90
17442;DHT22;8838;50.144;8.176;2022-11-15T08:31:30;9.90;99.90
17442;DHT22;8838;50.144;8.176;2022-11-15T08:33:57;9.90;99.90
17442;DHT22;8838;50.144;8.176;2022-11-15T08:36:25;10.00;99.90
17442;DHT22;8838;50.144;8.176;2022-11-15T08:38:52;10.00;99.90
17442;DHT22;8838;50.144;8.176;2022-11-15T08:41:25;10.10;99.90
17442;DHT22;8838;50.144;8.176;2022-11-15T08:43:52;10.10;99.90
17442;DHT22;8838;50.144;8.176;2022-11-15T08:46:19;10.20;99.90
17442;DHT22;8838;50.144;8.176;2022-11-15T08:48:46;10.20;99.90
17442;DHT22;8838;50.144;8.176;2022-11-15T08:51:13;10.30;99.90
17442;DHT22;8838;50.144;8.176;2022-11-15T08:53:41;10.30;99.90
17442;DHT22;8838;50.144;8.176;2022-11-15T08:56:09;10.40;99.90
17442;DHT22;8838;50.144;8.176;2022-11-15T08:58:36;10.40;99.90
17442;DHT22;8838;50.144;8.176;2022-11-15T09:01:04;10.50;99.90
17442;DHT22;8838;50.144;8.176;2022-11-15T09:03:31;10.50;99.90
17442;DHT22;8838;50.144;8.176;2022-11-15T09:06:00;10.50;99.90
17442;DHT22;8838;50.144;8.176;2022-11-15T09:08:29;10.60;99.90
17442;DHT22;8838;50.144;8.176;2022-11-15T09:10:58;10.60;99.90
17442;DHT22;8838;50.144;8.176;2022-11-15T09:13:28;10.60;99.90
17442;DHT22;8838;50.144;8.176;2022-11-15T09:15:57;10.60;99.90
17442;DHT22;8838;50.144;8.176;2022-11-15T09:18:25;10.60;99.90
17442;DHT22;8838;50.144;8.176;2022-11-15T09:20:55;10.60;99.90
17442;DHT22;8838;50.144;8.176;2022-11-15T09:23:23;10.70;99.90
17442;DHT22;8838;50.144;8.176;2022-11-15T09:25:51;10.80;99.90
17442;DHT22;8838;50.144;8.176;2022-11-15T09:28:20;10.80;99.90
17442;DHT22;8838;50.144;8.176;2022-11-15T09:30:47;10.90;99.90
17442;DHT22;8838;50.144;8.176;2022-11-15T09:33:13;10.90;99.90
17442;DHT22;8838;50.144;8.176;2022-11-15T09:35:40;11.00;99.90
17442;DHT22;8838;50.144;8.176;2022-11-15T09:38:07;11.10;99.90
17442;DHT22;8838;50.144;8.176;2022-11-15T09:40:36;11.00;99.90
17442;DHT22;8838;50.144;8.176;2022-11-15T09:43:35;10.90;99.90
17442;DHT22;8838;50.144;8.176;2022-11-15T09:46:14;10.90;99.90
17442;DHT22;8838;50.144;8.176;2022-11-15T09:49:02;11.00;99.90
17442;DHT22;8838;50.144;8.176;2022-11-15T09:51:33;11.00;99.90
17442;DHT22;8838;50.144;8.176;2022-11-15T09:54:05;11.10;99.90
17442;DHT22;8838;50.144;8.176;2022-11-15T09:56:37;11.10;99.90
17442;DHT22;8838;50.144;8.176;2022-11-15T09:59:17;11.20;99.90
17442;DHT22;8838;50.144;8.176;2022-11-15T10:01:54;11.20;99.90
17442;DHT22;8838;50.144;8.176;2022-11-15T10:04:24;11.20;99.90
17442;DHT22;8838;50.144;8.176;2022-11-15T10:06:58;11.20;99.90
17442;DHT22;8838;50.144;8.176;2022-11-15T10:09:30;11.20;99.90
17442;DHT22;8838;50.144;8.176;2022-11-15T10:11:59;11.20;99.90
17442;DHT22;8838;50.144;8.176;2022-11-15T10:14:29;11.30;99.90
17442;DHT22;8838;50.144;8.176;2022-11-15T10:17:19;11.30;99.90
17442;DHT22;8838;50.144;8.176;2022-11-15T10:19:58;11.30;99.90
17442;DHT22;8838;50.144;8.176;2022-11-15T10:22:30;11.30;99.90
17442;DHT22;8838;50.144;8.176;2022-11-15T10:25:12;11.50;99.90
17442;DHT22;8838;50.144;8.176;2022-11-15T10:27:40;11.40;99.90
17442;DHT22;8838;50.144;8.176;2022-11-15T10:30:14;11.50;99.90
17442;DHT22;8838;50.144;8.176;2022-11-15T10:32:44;11.60;99.90
17442;DHT22;8838;50.144;8.176;2022-11-15T10:35:19;11.60;99.90
17442;DHT22;8838;50.144;8.176;2022-11-15T10:37:47;11.70;99.90
17442;DHT22;8838;50.144;8.176;2022-11-15T10:40:19;11.70;99.90
17442;DHT22;8838;50.144;8.176;2022-11-15T10:42:47;11.70;99.90
17442;DHT22;8838;50.144;8.176;2022-11-15T10:45:26;11.80;99.90
17442;DHT22;8838;50.144;8.176;2022-11-15T10:47:53;11.90;99.90
17442;DHT22;8838;50.144;8.176;2022-11-15T10:50:28;12.00;99.90
17442;DHT22;8838;50.144;8.176;2022-11-15T10:52:56;12.00;99.90
17442;DHT22;8838;50.144;8.176;2022-11-15T10:55:26;12.00;99.90
17442;DHT22;8838;50.144;8.176;2022-11-15T10:57:56;12.00;99.90
17442;DHT22;8838;50.144;8.176;2022-11-15T11:00:45;12.00;99.90
17442;DHT22;8838;50.144;8.176;2022-11-15T11:03:28;12.10;99.90
17442;DHT22;8838;50.144;8.176;2022-11-15T11:06:08;12.00;99.90
17442;DHT22;8838;50.144;8.176;2022-11-15T11:08:35;11.90;99.90
17442;DHT22;8838;50.144;8.176;2022-11-15T11:11:04;11.90;99.90
17442;DHT22;8838;50.144;8.176;2022-11-15T11:13:35;11.80;99.90
17442;DHT22;8838;50.144;8.176;2022-11-15T11:16:26;11.80;99.90
17442;DHT22;8838;50.144;8.176;2022-11-15T11:19:04;11.80;99.90
17442;DHT22;8838;50.144;8.176;2022-11-15T11:21:43;11.90;99.90
17442;DHT22;8838;50.144;8.176;2022-11-15T11:24:20;12.00;99.90
17442;DHT22;8838;50.144;8.176;2022-11-15T11:27:07;12.00;99.90
17442;DHT22;8838;50.144;8.176;2022-11-15T11:29:45;12.00;99.90
17442;DHT22;8838;50.144;8.176;2022-11-15T11:32:30;12.00;99.90
17442;DHT22;8838;50.144;8.176;2022-11-15T11:35:05;12.00;99.90
17442;DHT22;8838;50.144;8.176;2022-11-15T11:37:39;12.00;99.90
17442;DHT22;8838;50.144;8.176;2022-11-15T11:40:18;12.00;99.90
17442;DHT22;8838;50.144;8.176;2022-11-15T11:42:53;12.00;99.90
17442;DHT22;8838;50.144;8.176;2022-11-15T11:45:36;12.00;99.90
17442;DHT22;8838;50.144;8.176;2022-11-15T11:48:12;11.90;99.90
17442;DHT22;8838;50.144;8.176;2022-11-15T11:50:41;11.90;99.90
17442;DHT22;8838;50.144;8.176;2022-11-15T11:53:12;11.90;99.90
17442;DHT22;8838;50.144;8.176;2022-11-15T11:55:43;11.90;99.90
17442;DHT22;8838;50.144;8.176;2022-11-15T11:58:15;11.60;99.90
17442;DHT22;8838;50.144;8.176;2022-11-15T12:00:47;11.60;99.90
17442;DHT22;8838;50.144;8.176;2022-11-15T12:03:24;11.50;99.90
17442;DHT22;8838;50.144;8.176;2022-11-15T12:05:54;11.40;99.90
17442;DHT22;8838;50.144;8.176;2022-11-15T12:08:29;11.50;99.90
17442;DHT22;8838;50.144;8.176;2022-11-15T12:11:03;11.40;99.90
17442;DHT22;8838;50.144;8.176;2022-11-15T12:13:34;11.40;99.90
17442;DHT22;8838;50.144;8.176;2022-11-15T12:16:07;11.40;99.90
17442;DHT22;8838;50.144;8.176;2022-11-15T12:18:36;11.40;99.90
17442;DHT22;8838;50.144;8.176;2022-11-15T12:21:08;11.40;99.90
17442;DHT22;8838;50.144;8.176;2022-11-15T12:23:43;11.50;99.90
17442;DHT22;8838;50.144;8.176;2022-11-15T12:26:17;11.40;99.90
17442;DHT22;8838;50.144;8.176;2022-11-15T12:28:49;11.50;99.90
17442;DHT22;8838;50.144;8.176;2022-11-15T12:31:23;11.50;99.90
17442;DHT22;8838;50.144;8.176;2022-11-15T12:33:55;11.60;99.90
17442;DHT22;8838;50.144;8.176;2022-11-15T12:36:36;11.60;99.90
17442;DHT22;8838;50.144;8.176;2022-11-15T12:39:06;11.60;99.90
17442;DHT22;8838;50.144;8.176;2022-11-15T12:41:35;11.60;99.90
17442;DHT22;8838;50.144;8.176;2022-11-15T12:44:03;11.60;99.90
17442;DHT22;8838;50.144;8.176;2022-11-15T12:47:01;11.60;99.90
17442;DHT22;8838;50.144;8.176;2022-11-15T12:49:46;11.60;99.90
17442;DHT22;8838;50.144;8.176;2022-11-15T12:52:14;11.50;99.90
17442;DHT22;8838;50.144;8.176;2022-11-15T12:58:26;11.50;99.90
17442;DHT22;8838;50.144;8.176;2022-11-15T13:00:54;11.40;99.90
17442;DHT22;8838;50.144;8.176;2022-11-15T13:03:26;11.50;99.90
17442;DHT22;8838;50.144;8.176;2022-11-15T13:09:03;11.50;99.90
17442;DHT22;8838;50.144;8.176;2022-11-15T13:11:52;11.60;99.90
17442;DHT22;8838;50.144;8.176;2022-11-15T13:14:45;11.60;99.90
17442;DHT22;8838;50.144;8.176;2022-11-15T13:17:30;11.60;99.90
17442;DHT22;8838;50.144;8.176;2022-11-15T13:22:45;11.60;99.90
17442;DHT22;8838;50.144;8.176;2022-11-15T13:25:33;11.70;99.90
17442;DHT22;8838;50.144;8.176;2022-11-15T13:28:17;11.70;99.90
17442;DHT22;8838;50.144;8.176;2022-11-15T13:30:50;11.70;99.90
17442;DHT22;8838;50.144;8.176;2022-11-15T13:33:20;11.80;99.90
17442;DHT22;8838;50.144;8.176;2022-11-15T13:35:50;11.80;99.90
17442;DHT22;8838;50.144;8.176;2022-11-15T13:38:27;11.80;99.90
17442;DHT22;8838;50.144;8.176;2022-11-15T13:40:55;11.70;99.90
17442;DHT22;8838;50.144;8.176;2022-11-15T13:43:30;11.60;99.90
17442;DHT22;8838;50.144;8.176;2022-11-15T13:46:13;11.60;99.90
17442;DHT22;8838;50.144;8.176;2022-11-15T13:48:41;11.50;99.90
17442;DHT22;8838;50.144;8.176;2022-11-15T13:51:13;11.50;99.90
17442;DHT22;8838;50.144;8.176;2022-11-15T13:53:44;11.40;99.90
17442;DHT22;8838;50.144;8.176;2022-11-15T13:56:14;11.40;99.90
17442;DHT22;8838;50.144;8.176;2022-11-15T13:58:43;11.30;99.90
17442;DHT22;8838;50.144;8.176;2022-11-15T14:01:16;11.20;99.90
17442;DHT22;8838;50.144;8.176;2022-11-15T14:03:52;11.10;99.90
17442;DHT22;8838;50.144;8.176;2022-11-15T14:06:23;11.00;99.90
17442;DHT22;8838;50.144;8.176;2022-11-15T14:11:52;11.00;99.90
17442;DHT22;8838;50.144;8.176;2022-11-15T14:14:24;11.00;99.90
17442;DHT22;8838;50.144;8.176;2022-11-15T14:16:53;11.00;99.90
17442;DHT22;8838;50.144;8.176;2022-11-15T14:19:38;10.90;99.90
17442;DHT22;8838;50.144;8.176;2022-11-15T14:22:15;10.90;99.90
17442;DHT22;8838;50.144;8.176;2022-11-15T14:24:45;10.70;99.90
17442;DHT22;8838;50.144;8.176;2022-11-15T14:27:26;10.70;99.90
17442;DHT22;8838;50.144;8.176;2022-11-15T14:29:55;10.80;99.90
17442;DHT22;8838;50.144;8.176;2022-11-15T14:32:23;10.70;99.90
17442;DHT22;8838;50.144;8.176;2022-11-15T14:34:55;10.70;99.90
17442;DHT22;8838;50.144;8.176;2022-11-15T14:37:24;10.60;99.90
17442;DHT22;8838;50.144;8.176;2022-11-15T14:39:54;10.60;99.90
17442;DHT22;8838;50.144;8.176;2022-11-15T14:42:22;10.60;99.90
17442;DHT22;8838;50.144;8.176;2022-11-15T14:44:49;10.50;99.90
17442;DHT22;8838;50.144;8.176;2022-11-15T14:47:18;10.60;99.90
17442;DHT22;8838;50.144;8.176;2022-11-15T14:49:45;10.70;99.90
17442;DHT22;8838;50.144;8.176;2022-11-15T14:52:24;10.70;99.90
17442;DHT22;8838;50.144;8.176;2022-11-15T14:54:51;10.60;99.90
17442;DHT22;8838;50.144;8.176;2022-11-15T14:57:18;10.60;99.90
17442;DHT22;8838;50.144;8.176;2022-11-15T14:59:45;10.70;99.90
17442;DHT22;8838;50.144;8.176;2022-11-15T15:02:18;10.60;99.90
17442;DHT22;8838;50.144;8.176;2022-11-15T15:04:46;10.60;99.90
17442;DHT22;8838;50.144;8.176;2022-11-15T15:07:14;10.60;99.90
17442;DHT22;8838;50.144;8.176;2022-11-15T15:09:41;10.60;99.90
17442;DHT22;8838;50.144;8.176;2022-11-15T15:12:19;10.60;99.90
17442;DHT22;8838;50.144;8.176;2022-11-15T15:14:48;10.60;99.90
17442;DHT22;8838;50.144;8.176;2022-11-15T15:17:15;10.70;99.90
17442;DHT22;8838;50.144;8.176;2022-11-15T15:19:44;10.60;99.90
17442;DHT22;8838;50.144;8.176;2022-11-15T15:22:14;10.60;99.90
17442;DHT22;8838;50.144;8.176;2022-11-15T15:24:41;10.60;99.90
17442;DHT22;8838;50.144;8.176;2022-11-15T15:27:08;10.60;99.90
17442;DHT22;8838;50.144;8.176;2022-11-15T15:29:35;10.60;99.90
17442;DHT22;8838;50.144;8.176;2022-11-15T15:32:02;10.60;99.90
17442;DHT22;8838;50.144;8.176;2022-11-15T15:34:29;10.60;99.90
17442;DHT22;8838;50.144;8.176;2022-11-15T15:37:22;10.60;99.90
17442;DHT22;8838;50.144;8.176;2022-11-15T15:39:51;10.60;99.90
17442;DHT22;8838;50.144;8.176;2022-11-15T15:42:18;10.60;99.90
17442;DHT22;8838;50.144;8.176;2022-11-15T15:44:45;10.60;99.90
17442;DHT22;8838;50.144;8.176;2022-11-15T15:47:13;10.50;99.90
17442;DHT22;8838;50.144;8.176;2022-11-15T15:49:42;10.50;99.90
17442;DHT22;8838;50.144;8.176;2022-11-15T15:52:09;10.60;99.90
17442;DHT22;8838;50.144;8.176;2022-11-15T15:54:38;10.60;99.90
17442;DHT22;8838;50.144;8.176;2022-11-15T15:57:05;10.60;99.90
17442;DHT22;8838;50.144;8.176;2022-11-15T15:59:34;10.60;99.90
17442;DHT22;8838;50.144;8.176;2022-11-15T16:02:01;10.60;99.90
17442;DHT22;8838;50.144;8.176;2022-11-15T16:04:28;10.60;99.90
17442;DHT22;8838;50.144;8.176;2022-11-15T16:06:58;10.60;99.90
17442;DHT22;8838;50.144;8.176;2022-11-15T16:09:25;10.50;99.90
17442;DHT22;8838;50.144;8.176;2022-11-15T16:12:07;10.50;99.90
17442;DHT22;8838;50.144;8.176;2022-11-15T16:14:34;10.50;99.90
17442;DHT22;8838;50.144;8.176;2022-11-15T16:17:01;10.50;99.90
17442;DHT22;8838;50.144;8.176;2022-11-15T16:19:28;10.60;99.90
17442;DHT22;8838;50.144;8.176;2022-11-15T16:21:55;10.50;99.90
17442;DHT22;8838;50.144;8.176;2022-11-15T16:24:22;10.50;99.90
17442;DHT22;8838;50.144;8.176;2022-11-15T16:26:50;10.50;99.90
17442;DHT22;8838;50.144;8.176;2022-11-15T16:29:18;10.50;99.90
17442;DHT22;8838;50.144;8.176;2022-11-15T16:31:45;10.50;99.90